createdAt,value
2018-05-04T00:00:06.679Z,71.98
2018-05-04T00:02:34.943Z,72.49
2018-05-04T00:05:07.944Z,72.59
2018-05-04T00:07:36.222Z,72.74
2018-05-04T00:10:09.090Z,72.49
2018-05-04T00:12:37.480Z,72.32
2018-05-04T00:15:06.888Z,72.95
2018-05-04T00:17:35.166Z,72.96
2018-05-04T00:20:06.451Z,73.20
2018-05-04T00:22:34.712Z,73.50
2018-05-04T00:25:08.799Z,74.17
2018-05-04T00:27:37.059Z,74.05
2018-05-04T00:30:06.779Z,73.94
2018-05-04T00:32:35.050Z,74.10
2018-05-04T00:35:07.335Z,74.99
2018-05-04T00:37:35.631Z,75.25
2018-05-04T00:40:07.458Z,75.72
2018-05-04T00:42:35.734Z,75.23
2018-05-04T00:45:06.427Z,75.04
2018-05-04T00:47:34.743Z,74.78
2018-05-04T00:50:09.000Z,75.17
2018-05-04T00:52:37.251Z,75.39
2018-05-04T00:55:06.815Z,75.83
2018-05-04T00:57:35.574Z,76.07
2018-05-04T01:00:07.595Z,75.87
2018-05-04T01:02:35.864Z,75.52
2018-05-04T01:05:07.055Z,75.50
2018-05-04T01:07:35.302Z,75.69
2018-05-04T01:10:06.726Z,75.77
2018-05-04T01:12:34.987Z,75.75
2018-05-04T01:15:06.306Z,76.27
2018-05-04T01:17:34.559Z,76.19
2018-05-04T01:20:09.466Z,76.70
2018-05-04T01:22:37.727Z,76.61
2018-05-04T01:25:06.019Z,76.08
2018-05-04T01:27:34.292Z,76.37
2018-05-04T01:30:06.164Z,75.76
2018-05-04T01:32:34.716Z,76.14
2018-05-04T01:35:05.503Z,76.14
2018-05-04T01:37:33.788Z,76.79
2018-05-04T01:40:07.582Z,76.62
2018-05-04T01:42:35.867Z,76.73
2018-05-04T01:45:05.848Z,76.81
2018-05-04T01:47:34.123Z,76.83
2018-05-04T01:50:05.509Z,76.39
2018-05-04T01:52:33.787Z,76.47
2018-05-04T01:55:07.963Z,76.59
2018-05-04T01:57:36.459Z,77.12
2018-05-04T02:00:06.048Z,77.03
2018-05-04T02:02:34.324Z,77.10
2018-05-04T02:05:06.411Z,76.23
2018-05-04T02:07:34.696Z,77.03
2018-05-04T02:10:06.830Z,77.55
2018-05-04T02:12:35.207Z,77.41
2018-05-04T02:15:07.364Z,77.98
2018-05-04T02:17:35.660Z,78.04
2018-05-04T02:20:05.718Z,78.28
2018-05-04T02:22:34.014Z,78.28
2018-05-04T02:25:05.683Z,78.72
2018-05-04T02:27:34.013Z,78.79
2018-05-04T02:30:09.135Z,78.70
2018-05-04T02:32:37.431Z,79.12
2018-05-04T02:35:05.769Z,79.45
2018-05-04T02:37:34.161Z,79.34
2018-05-04T02:40:05.638Z,79.25
2018-05-04T02:42:33.911Z,78.59
2018-05-04T02:45:05.599Z,78.94
2018-05-04T02:47:33.901Z,78.75
2018-05-04T02:50:09.111Z,79.33
2018-05-04T02:52:37.643Z,79.63
2018-05-04T02:55:05.903Z,79.93
2018-05-04T02:57:34.187Z,79.94
2018-05-04T03:00:05.938Z,80.12
2018-05-04T03:02:34.532Z,79.94
2018-05-04T03:05:06.696Z,79.46
2018-05-04T03:07:34.966Z,80.30
2018-05-04T03:10:07.035Z,80.16
2018-05-04T03:12:35.288Z,80.00
2018-05-04T03:15:07.279Z,80.37
2018-05-04T03:17:35.553Z,79.81
2018-05-04T03:20:05.647Z,80.26
2018-05-04T03:22:34.043Z,80.43
2018-05-04T03:25:05.642Z,80.24
2018-05-04T03:27:33.943Z,80.44
2018-05-04T03:30:09.191Z,80.41
2018-05-04T03:32:37.508Z,80.61
2018-05-04T03:35:05.769Z,80.58
2018-05-04T03:37:34.024Z,80.44
2018-05-04T03:40:06.947Z,80.86
2018-05-04T03:42:35.207Z,80.76
2018-05-04T03:45:05.900Z,80.66
2018-05-04T03:47:34.160Z,81.06
2018-05-04T03:50:09.242Z,81.64
2018-05-04T03:52:37.490Z,82.35
2018-05-04T03:55:05.742Z,81.81
2018-05-04T03:57:45.841Z,81.13
2018-05-04T04:00:25.889Z,81.75
2018-05-04T04:03:06.164Z,81.16
2018-05-04T04:05:34.458Z,81.62
2018-05-04T04:08:03.232Z,82.22
2018-05-04T04:10:31.495Z,82.05
2018-05-04T04:12:59.775Z,81.94
2018-05-04T04:15:28.157Z,81.60
2018-05-04T04:17:56.472Z,81.67
2018-05-04T04:20:24.699Z,82.04
2018-05-04T04:22:53.080Z,82.06
2018-05-04T04:25:21.483Z,81.63
2018-05-04T04:27:49.768Z,82.17
2018-05-04T04:30:18.021Z,81.62
2018-05-04T04:32:46.383Z,81.42
2018-05-04T04:35:14.671Z,81.63
2018-05-04T04:37:42.953Z,82.52
2018-05-04T04:40:11.228Z,82.65
2018-05-04T04:42:39.515Z,82.57
2018-05-04T04:45:07.775Z,82.29
2018-05-04T04:47:36.064Z,81.98
2018-05-04T04:50:05.953Z,81.87
2018-05-04T04:52:34.207Z,81.77
2018-05-04T04:55:05.822Z,81.01
2018-05-04T04:57:34.078Z,81.01
2018-05-04T05:00:09.224Z,81.39
2018-05-04T05:02:37.470Z,80.90
2018-05-04T05:05:05.756Z,80.54
2018-05-04T05:07:34.011Z,79.76
2018-05-04T05:10:05.452Z,79.50
2018-05-04T05:12:33.744Z,80.30
2018-05-04T05:15:05.347Z,80.42
2018-05-04T05:17:33.891Z,80.60
2018-05-04T05:20:05.544Z,80.80
2018-05-04T05:22:33.812Z,80.69
2018-05-04T05:25:05.436Z,80.51
2018-05-04T05:27:33.691Z,80.96
2018-05-04T05:30:05.170Z,80.01
2018-05-04T05:32:33.453Z,79.21
2018-05-04T05:35:08.078Z,79.67
2018-05-04T05:37:36.370Z,78.92
2018-05-04T05:40:07.217Z,79.29
2018-05-04T05:42:35.508Z,78.83
2018-05-04T05:45:06.925Z,78.90
2018-05-04T05:47:35.310Z,78.72
2018-05-04T05:50:06.531Z,78.42
2018-05-04T05:52:34.943Z,78.27
2018-05-04T05:55:05.799Z,77.32
2018-05-04T05:57:34.086Z,77.64
2018-05-04T06:00:07.310Z,76.39
2018-05-04T06:02:35.608Z,76.67
2018-05-04T06:05:05.966Z,76.51
2018-05-04T06:07:34.234Z,76.19
2018-05-04T06:10:05.880Z,77.16
2018-05-04T06:12:34.202Z,76.19
2018-05-04T06:15:08.573Z,76.33
2018-05-04T06:17:36.832Z,76.76
2018-05-04T06:20:06.454Z,76.34
2018-05-04T06:22:34.741Z,75.84
2018-05-04T06:25:06.888Z,75.02
2018-05-04T06:27:35.111Z,75.15
2018-05-04T06:30:06.217Z,76.08
2018-05-04T06:32:35.086Z,75.32
2018-05-04T06:35:06.892Z,74.26
2018-05-04T06:37:35.178Z,73.89
2018-05-04T06:40:07.220Z,73.64
2018-05-04T06:42:35.521Z,73.89
2018-05-04T06:45:07.627Z,73.55
2018-05-04T06:47:35.934Z,72.58
2018-05-04T06:50:09.210Z,71.55
2018-05-04T06:52:37.727Z,72.78
2018-05-04T06:55:06.024Z,72.19
2018-05-04T06:57:34.306Z,72.90
2018-05-04T07:00:09.343Z,71.18
2018-05-04T07:02:37.616Z,70.66
2018-05-04T07:05:06.609Z,70.87
2018-05-04T07:07:34.974Z,71.00
2018-05-04T07:10:07.112Z,70.57
2018-05-04T07:12:35.388Z,69.94
2018-05-04T07:15:07.534Z,68.03
2018-05-04T07:17:35.932Z,68.81
2018-05-04T07:20:06.007Z,67.86
2018-05-04T07:22:34.487Z,68.28
2018-05-04T07:25:05.879Z,67.15
2018-05-04T07:27:34.174Z,62.41
2018-05-04T07:30:05.707Z,57.38
2018-05-04T07:32:34.007Z,55.52
2018-05-04T07:35:05.541Z,54.38
2018-05-04T07:37:33.827Z,54.78
2018-05-04T07:40:08.709Z,53.15
2018-05-04T07:42:36.994Z,52.68
2018-05-04T07:45:06.413Z,52.99
2018-05-04T07:47:34.879Z,55.40
2018-05-04T07:50:06.769Z,55.20
2018-05-04T07:52:35.055Z,56.28
2018-05-04T07:55:06.146Z,54.17
2018-05-04T07:57:34.647Z,52.84
2018-05-04T08:00:06.736Z,48.40
2018-05-04T08:02:35.031Z,47.67
2018-05-04T08:05:06.223Z,45.21
2018-05-04T08:07:34.517Z,47.24
2018-05-04T08:10:06.409Z,46.91
2018-05-04T08:12:34.734Z,48.99
2018-05-04T08:15:06.742Z,53.38
2018-05-04T08:17:35.199Z,53.89
2018-05-04T08:20:07.610Z,53.22
2018-05-04T08:22:35.928Z,52.56
2018-05-04T08:25:07.103Z,50.92
2018-05-04T08:27:35.407Z,51.42
2018-05-04T08:30:07.527Z,49.97
2018-05-04T08:32:35.834Z,50.09
2018-05-04T08:35:05.978Z,46.71
2018-05-04T08:37:34.204Z,44.18
2018-05-04T08:40:06.262Z,42.40
2018-05-04T08:42:34.526Z,40.84
2018-05-04T08:45:08.620Z,40.23
2018-05-04T08:47:36.883Z,43.63
2018-05-04T08:50:06.120Z,40.23
2018-05-04T08:52:34.383Z,39.28
2018-05-04T08:55:09.418Z,38.55
2018-05-04T08:57:37.677Z,40.29
2018-05-04T09:00:05.968Z,42.91
2018-05-04T09:02:34.391Z,46.55
2018-05-04T09:05:06.221Z,46.04
2018-05-04T09:07:34.411Z,44.82
2018-05-04T09:10:06.194Z,44.96
2018-05-04T09:12:34.526Z,44.27
2018-05-04T09:15:07.550Z,43.88
2018-05-04T09:17:35.829Z,46.13
2018-05-04T09:20:07.949Z,46.29
2018-05-04T09:22:36.231Z,47.13
2018-05-04T09:25:06.363Z,45.34
2018-05-04T09:27:34.628Z,46.15
2018-05-04T09:30:06.068Z,47.36
2018-05-04T09:32:34.332Z,47.13
2018-05-04T09:35:07.731Z,46.81
2018-05-04T09:37:36.051Z,48.04
2018-05-04T09:40:05.967Z,47.05
2018-05-04T09:42:34.721Z,46.82
2018-05-04T09:45:06.688Z,47.37
2018-05-04T09:47:34.979Z,46.92
2018-05-04T09:50:06.195Z,47.34
2018-05-04T09:52:34.552Z,46.09
2018-05-04T09:55:06.971Z,46.79
2018-05-04T09:57:35.275Z,44.95
2018-05-04T10:00:07.273Z,44.81
2018-05-04T10:02:35.567Z,45.21
2018-05-04T10:05:07.145Z,45.47
2018-05-04T10:07:35.628Z,45.54
2018-05-04T10:10:07.244Z,44.29
2018-05-04T10:12:35.536Z,44.15
2018-05-04T10:15:07.619Z,42.05
2018-05-04T10:17:35.920Z,40.90
2018-05-04T10:20:07.544Z,37.84
2018-05-04T10:22:35.839Z,37.44
2018-05-04T10:25:07.751Z,35.81
2018-05-04T10:27:36.429Z,31.58
2018-05-04T10:30:06.547Z,33.68
2018-05-04T10:32:34.868Z,31.51
2018-05-04T10:35:06.425Z,28.77
2018-05-04T10:37:34.643Z,28.78
2018-05-04T10:40:08.706Z,28.14
2018-05-04T10:42:36.974Z,27.62
2018-05-04T10:45:06.439Z,29.03
2018-05-04T10:47:34.623Z,28.75
2018-05-04T10:50:09.638Z,29.68
2018-05-04T10:52:38.066Z,30.08
2018-05-04T10:55:06.361Z,31.30
2018-05-04T10:57:34.667Z,29.55
2018-05-04T11:00:06.371Z,30.47
2018-05-04T11:02:34.627Z,32.01
2018-05-04T11:05:08.705Z,31.69
2018-05-04T11:07:36.998Z,31.70
2018-05-04T11:10:06.743Z,32.09
2018-05-04T11:12:35.033Z,31.53
2018-05-04T11:15:06.256Z,31.72
2018-05-04T11:17:34.639Z,32.12
2018-05-04T11:20:09.784Z,31.34
2018-05-04T11:22:38.052Z,31.49
2018-05-04T11:25:06.345Z,32.76
2018-05-04T11:27:34.602Z,33.50
2018-05-04T11:30:05.983Z,31.95
2018-05-04T11:32:34.323Z,33.29
2018-05-04T11:35:07.686Z,32.65
2018-05-04T11:37:35.981Z,33.09
2018-05-04T11:40:08.087Z,32.36
2018-05-04T11:42:36.426Z,32.83
2018-05-04T11:45:06.338Z,31.68
2018-05-04T11:47:34.721Z,30.81
2018-05-04T11:50:06.762Z,30.32
2018-05-04T11:52:35.079Z,29.32
2018-05-04T11:55:06.365Z,29.82
2018-05-04T11:57:34.583Z,29.53
2018-05-04T12:00:05.935Z,30.41
2018-05-04T12:02:34.241Z,31.33
2018-05-04T12:05:09.108Z,31.29
2018-05-04T12:07:37.399Z,31.31
2018-05-04T12:10:07.103Z,30.19
2018-05-04T12:12:35.376Z,29.49
2018-05-04T12:15:07.413Z,29.27
2018-05-04T12:17:35.794Z,29.23
2018-05-04T12:20:08.023Z,29.81
2018-05-04T12:22:36.274Z,32.07
2018-05-04T12:25:06.146Z,30.36
2018-05-04T12:27:34.606Z,29.07
2018-05-04T12:30:06.119Z,28.67
2018-05-04T12:32:34.548Z,28.84
2018-05-04T12:35:09.631Z,28.86
2018-05-04T12:37:37.898Z,28.87
2018-05-04T12:40:06.204Z,28.50
2018-05-04T12:42:35.047Z,28.20
2018-05-04T12:45:06.863Z,27.74
2018-05-04T12:47:35.132Z,29.06
2018-05-04T12:50:07.510Z,29.79
2018-05-04T12:52:35.793Z,29.17
2018-05-04T12:55:07.859Z,28.57
2018-05-04T12:57:36.128Z,28.10
2018-05-04T13:00:07.916Z,27.21
2018-05-04T13:02:36.179Z,27.16
2018-05-04T13:05:07.915Z,31.24
2018-05-04T13:07:36.192Z,29.40
2018-05-04T13:10:08.051Z,28.19
2018-05-04T13:12:36.484Z,29.36
2018-05-04T13:15:06.515Z,28.16
2018-05-04T13:17:34.948Z,28.88
2018-05-04T13:20:06.977Z,30.30
2018-05-04T13:22:35.252Z,29.25
2018-05-04T13:25:07.399Z,28.75
2018-05-04T13:27:35.692Z,29.52
2018-05-04T13:30:07.168Z,27.78
2018-05-04T13:32:35.492Z,28.21
2018-05-04T13:35:07.583Z,27.72
2018-05-04T13:37:35.839Z,29.57
2018-05-04T13:40:07.609Z,29.03
2018-05-04T13:42:35.903Z,28.21
2018-05-04T13:45:07.071Z,28.09
2018-05-04T13:47:35.426Z,27.43
2018-05-04T13:50:07.359Z,27.77
2018-05-04T13:52:35.648Z,28.87
2018-05-04T13:55:07.785Z,29.43
2018-05-04T13:57:36.083Z,29.44
2018-05-04T14:00:07.982Z,28.72
2018-05-04T14:02:36.270Z,27.59
2018-05-04T14:05:06.412Z,28.02
2018-05-04T14:07:34.711Z,28.43
2018-05-04T14:10:10.091Z,29.18
2018-05-04T14:12:38.448Z,28.25
2018-05-04T14:15:07.280Z,28.98
2018-05-04T14:17:35.572Z,29.58
2018-05-04T14:20:06.322Z,30.41
2018-05-04T14:22:34.595Z,29.95
2018-05-04T14:25:06.504Z,29.26
2018-05-04T14:27:34.820Z,29.47
2018-05-04T14:30:09.826Z,29.69
2018-05-04T14:32:38.306Z,28.93
2018-05-04T14:35:06.597Z,30.67
2018-05-04T14:37:35.054Z,30.07
2018-05-04T14:40:07.200Z,29.54
2018-05-04T14:42:35.476Z,29.84
2018-05-04T14:45:06.334Z,31.49
2018-05-04T14:47:34.610Z,30.11
2018-05-04T14:50:06.099Z,29.48
2018-05-04T14:52:34.355Z,29.20
2018-05-04T14:55:10.807Z,31.37
2018-05-04T14:57:39.113Z,31.14
2018-05-04T15:00:07.400Z,30.75
2018-05-04T15:02:36.307Z,30.27
2018-05-04T15:05:06.375Z,30.83
2018-05-04T15:07:34.805Z,30.65
2018-05-04T15:10:06.185Z,30.34
2018-05-04T15:12:34.891Z,30.13
2018-05-04T15:15:06.708Z,30.48
2018-05-04T15:17:34.960Z,31.62
2018-05-04T15:20:08.880Z,32.06
2018-05-04T15:22:37.156Z,32.69
2018-05-04T15:25:06.779Z,32.95
2018-05-04T15:27:35.048Z,33.71
2018-05-04T15:30:09.099Z,33.10
2018-05-04T15:32:37.371Z,34.03
2018-05-04T15:35:06.718Z,34.32
2018-05-04T15:37:35.301Z,34.20
2018-05-04T15:40:06.704Z,34.71
2018-05-04T15:42:34.978Z,35.24
2018-05-04T15:45:07.120Z,35.31
2018-05-04T15:47:35.424Z,35.48
2018-05-04T15:50:13.071Z,35.72
2018-05-04T15:52:41.352Z,35.50
2018-05-04T15:55:09.804Z,36.05
2018-05-04T15:57:38.127Z,36.03
2018-05-04T16:00:06.388Z,35.51
2018-05-04T16:02:34.814Z,35.96
2018-05-04T16:05:06.247Z,35.89
2018-05-04T16:07:34.735Z,36.59
2018-05-04T16:10:09.984Z,35.17
2018-05-04T16:12:38.283Z,35.53
2018-05-04T16:15:06.555Z,35.99
2018-05-04T16:17:34.844Z,35.99
2018-05-04T16:20:09.834Z,35.85
2018-05-04T16:22:38.144Z,35.83
2018-05-04T16:25:06.420Z,36.16
2018-05-04T16:27:34.735Z,36.41
2018-05-04T16:30:09.969Z,36.13
2018-05-04T16:32:38.314Z,36.35
2018-05-04T16:35:06.670Z,36.63
2018-05-04T16:37:34.960Z,36.64
2018-05-04T16:40:06.302Z,37.29
2018-05-04T16:42:34.571Z,36.62
2018-05-04T16:45:05.949Z,36.87
2018-05-04T16:47:34.520Z,36.76
2018-05-04T16:50:06.512Z,36.44
2018-05-04T16:52:34.775Z,36.31
2018-05-04T16:55:08.174Z,36.43
2018-05-04T16:57:36.447Z,36.60
2018-05-04T17:00:06.722Z,36.21
2018-05-04T17:02:34.998Z,36.37
2018-05-04T17:05:07.176Z,36.47
2018-05-04T17:07:35.461Z,36.48
2018-05-04T17:10:06.523Z,36.04
2018-05-04T17:12:34.798Z,36.12
2018-05-04T17:15:06.298Z,36.28
2018-05-04T17:17:34.567Z,36.27
2018-05-04T17:20:06.011Z,36.64
2018-05-04T17:22:34.289Z,36.07
2018-05-04T17:25:06.224Z,36.27
2018-05-04T17:27:34.507Z,36.01
2018-05-04T17:30:06.618Z,36.49
2018-05-04T17:32:34.915Z,36.21
2018-05-04T17:35:05.577Z,36.50
2018-05-04T17:37:33.899Z,36.74
2018-05-04T17:40:05.615Z,36.75
2018-05-04T17:42:33.840Z,36.45
2018-05-04T17:45:07.228Z,36.90
2018-05-04T17:47:35.928Z,36.51
2018-05-04T17:50:07.119Z,36.51
2018-05-04T17:52:35.420Z,36.55
2018-05-04T17:55:06.603Z,36.54
2018-05-04T17:57:35.560Z,36.75
2018-05-04T18:00:05.479Z,36.41
2018-05-04T18:02:33.771Z,36.43
2018-05-04T18:05:05.348Z,36.65
2018-05-04T18:07:33.618Z,36.83
2018-05-04T18:10:08.728Z,37.13
2018-05-04T18:12:36.982Z,37.50
2018-05-04T18:15:05.757Z,37.60
2018-05-04T18:17:34.032Z,37.40
2018-05-04T18:20:05.358Z,37.23
2018-05-04T18:22:33.655Z,36.97
2018-05-04T18:25:04.941Z,37.07
2018-05-04T18:27:33.255Z,37.34
2018-05-04T18:30:08.165Z,37.25
2018-05-04T18:32:36.444Z,37.13
2018-05-04T18:35:05.565Z,37.29
2018-05-04T18:37:34.204Z,37.54
2018-05-04T18:40:05.626Z,37.39
2018-05-04T18:42:33.941Z,37.98
2018-05-04T18:45:05.816Z,37.95
2018-05-04T18:47:34.104Z,38.84
2018-05-04T18:50:05.496Z,38.66
2018-05-04T18:52:33.760Z,39.19
2018-05-04T18:55:05.058Z,39.15
2018-05-04T18:57:33.346Z,38.65
2018-05-04T19:00:08.173Z,39.65
2018-05-04T19:02:42.340Z,40.11
2018-05-04T19:05:10.629Z,39.96
2018-05-04T19:07:38.902Z,41.17
2018-05-04T19:10:07.339Z,41.45
2018-05-04T19:12:35.645Z,41.05
2018-05-04T19:15:05.665Z,41.56
2018-05-04T19:17:33.945Z,42.22
2018-05-04T19:20:05.726Z,41.84
2018-05-04T19:22:34.012Z,42.09
2018-05-04T19:25:09.745Z,42.06
2018-05-04T19:27:38.050Z,42.04
2018-05-04T19:30:06.656Z,42.28
2018-05-04T19:32:34.943Z,43.02
2018-05-04T19:35:06.956Z,42.27
2018-05-04T19:37:35.255Z,42.97
2018-05-04T19:40:07.115Z,42.79
2018-05-04T19:42:35.420Z,43.43
2018-05-04T19:45:07.405Z,43.63
2018-05-04T19:47:35.703Z,43.92
2018-05-04T19:50:05.784Z,44.52
2018-05-04T19:52:34.142Z,44.22
2018-05-04T19:55:09.107Z,44.85
2018-05-04T19:57:37.612Z,45.01
2018-05-04T20:00:05.982Z,45.54
2018-05-04T20:02:34.487Z,46.67
2018-05-04T20:05:05.709Z,47.48
2018-05-04T20:07:33.987Z,47.70
2018-05-04T20:10:06.484Z,48.27
2018-05-04T20:12:34.795Z,48.77
2018-05-04T20:15:07.252Z,49.03
2018-05-04T20:17:35.685Z,49.21
2018-05-04T20:20:07.674Z,49.33
2018-05-04T20:22:35.967Z,49.56
2018-05-04T20:25:05.920Z,49.59
2018-05-04T20:27:34.195Z,49.82
2018-05-04T20:30:09.323Z,50.30
2018-05-04T20:32:37.597Z,49.66
2018-05-04T20:35:05.900Z,50.31
2018-05-04T20:37:34.286Z,51.46
2018-05-04T20:40:06.404Z,51.74
2018-05-04T20:42:34.669Z,52.15
2018-05-04T20:45:06.697Z,52.33
2018-05-04T20:47:34.960Z,51.96
2018-05-04T20:50:07.027Z,52.67
2018-05-04T20:52:35.324Z,52.86
2018-05-04T20:55:07.364Z,53.10
2018-05-04T20:57:35.675Z,53.70
2018-05-04T21:00:07.625Z,54.10
2018-05-04T21:02:35.920Z,53.93
2018-05-04T21:05:07.137Z,54.10
2018-05-04T21:07:35.448Z,54.23
2018-05-04T21:10:07.482Z,54.32
2018-05-04T21:12:35.778Z,54.21
2018-05-04T21:15:05.999Z,55.23
2018-05-04T21:17:34.276Z,54.69
2018-05-04T21:20:05.735Z,55.39
2018-05-04T21:22:34.032Z,55.73
2018-05-04T21:25:05.753Z,55.41
2018-05-04T21:27:34.040Z,55.36
2018-05-04T21:30:05.943Z,55.22
2018-05-04T21:32:34.655Z,55.64
2018-05-04T21:35:06.361Z,56.45
2018-05-04T21:37:34.640Z,57.00
2018-05-04T21:40:05.838Z,57.05
2018-05-04T21:42:34.122Z,57.87
2018-05-04T21:45:05.530Z,57.95
2018-05-04T21:47:33.816Z,57.97
2018-05-04T21:50:05.789Z,57.48
2018-05-04T21:52:34.131Z,57.45
2018-05-04T21:55:05.576Z,56.77
2018-05-04T21:57:33.867Z,56.11
2018-05-04T22:00:09.176Z,55.21
2018-05-04T22:02:37.523Z,55.16
2018-05-04T22:05:06.994Z,55.02
2018-05-04T22:07:35.403Z,55.76
2018-05-04T22:10:07.311Z,56.54
2018-05-04T22:12:35.678Z,57.19
2018-05-04T22:15:07.642Z,56.91
2018-05-04T22:17:35.908Z,56.79
2018-05-04T22:20:08.044Z,55.78
2018-05-04T22:22:36.335Z,55.64
2018-05-04T22:25:06.688Z,56.75
2018-05-04T22:27:35.336Z,56.30
2018-05-04T22:30:07.302Z,56.14
2018-05-04T22:32:35.584Z,55.91
2018-05-04T22:35:07.853Z,55.96
2018-05-04T22:37:36.127Z,56.07
2018-05-04T22:40:07.368Z,56.16
2018-05-04T22:42:35.629Z,56.81
2018-05-04T22:45:06.927Z,56.84
2018-05-04T22:47:35.206Z,56.77
2018-05-04T22:50:06.810Z,56.83
2018-05-04T22:52:35.064Z,56.97
2018-05-04T22:55:06.469Z,57.61
2018-05-04T22:57:34.739Z,57.67
2018-05-04T23:00:06.099Z,58.47
2018-05-04T23:02:34.378Z,58.66
2018-05-04T23:05:05.662Z,58.66
2018-05-04T23:07:33.951Z,59.52
2018-05-04T23:10:09.877Z,60.34
2018-05-04T23:12:38.220Z,61.24
2018-05-04T23:15:06.525Z,61.50
2018-05-04T23:17:34.800Z,62.50
2018-05-04T23:20:06.290Z,61.99
2018-05-04T23:22:34.579Z,62.17
2018-05-04T23:25:06.545Z,62.32
2018-05-04T23:27:34.832Z,62.75
2018-05-04T23:30:06.214Z,63.47
2018-05-04T23:32:34.498Z,63.81
2018-05-04T23:35:07.344Z,64.20
2018-05-04T23:37:35.630Z,64.06
2018-05-04T23:40:06.923Z,64.14
2018-05-04T23:42:35.209Z,64.07
2018-05-04T23:45:07.895Z,64.59
2018-05-04T23:47:36.204Z,64.55
2018-05-04T23:50:09.080Z,64.70
2018-05-04T23:52:37.547Z,64.48
2018-05-04T23:55:06.431Z,64.84
2018-05-04T23:57:34.711Z,65.12
